sensor_id;sensor_type;location;lat;lon;timestamp;pressure;altitude;pressure_sealevel;temperature;humidity
30343;BME280;17145;49.902;8.680;'2023-04-04 01:59:38';101200;;;3;34
30343;BME280;17145;49.902;8.680;'2023-04-04 02:02:06';101200;;;3;35
30343;BME280;17145;49.902;8.680;'2023-04-04 02:04:33';101200;;;3;35
30343;BME280;17145;49.902;8.680;'2023-04-04 02:07:01';101200;;;3;35
30343;BME280;17145;49.902;8.680;'2023-04-04 02:09:28';101200;;;3;35
30343;BME280;17145;49.902;8.680;'2023-04-04 02:11:56';101200;;;2;35
30343;BME280;17145;49.902;8.680;'2023-04-04 02:14:23';101190;;;2;35
30343;BME280;17145;49.902;8.680;'2023-04-04 02:16:50';101190;;;2;35
30343;BME280;17145;49.902;8.680;'2023-04-04 02:19:18';101190;;;2;35
30343;BME280;17145;49.902;8.680;'2023-04-04 02:21:45';101190;;;3;35
30343;BME280;17145;49.902;8.680;'2023-04-04 02:24:13';101180;;;3;35
30343;BME280;17145;49.902;8.680;'2023-04-04 02:26:40';101180;;;2;35
30343;BME280;17145;49.902;8.680;'2023-04-04 02:29:08';101180;;;2;35
30343;BME280;17145;49.902;8.680;'2023-04-04 02:31:35';101180;;;2;35
30343;BME280;17145;49.902;8.680;'2023-04-04 02:34:03';101180;;;2;35
30343;BME280;17145;49.902;8.680;'2023-04-04 02:36:30';101180;;;2;35
30343;BME280;17145;49.902;8.680;'2023-04-04 02:38:57';101170;;;2;35
30343;BME280;17145;49.902;8.680;'2023-04-04 02:41:25';101170;;;2;35
30343;BME280;17145;49.902;8.680;'2023-04-04 02:43:54';101170;;;2;35
30343;BME280;17145;49.902;8.680;'2023-04-04 02:46:22';101170;;;2;35
30343;BME280;17145;49.902;8.680;'2023-04-04 02:48:50';101170;;;2;35
30343;BME280;17145;49.902;8.680;'2023-04-04 02:51:18';101170;;;2;35
30343;BME280;17145;49.902;8.680;'2023-04-04 02:53:46';101170;;;2;35
30343;BME280;17145;49.902;8.680;'2023-04-04 02:56:14';101170;;;2;35
30343;BME280;17145;49.902;8.680;'2023-04-04 02:58:43';101170;;;2;36
30343;BME280;17145;49.902;8.680;'2023-04-04 03:01:10';101180;;;2;36
30343;BME280;17145;49.902;8.680;'2023-04-04 03:03:38';101170;;;2;36
30343;BME280;17145;49.902;8.680;'2023-04-04 03:06:07';101170;;;2;35
30343;BME280;17145;49.902;8.680;'2023-04-04 03:08:36';101160;;;2;36
30343;BME280;17145;49.902;8.680;'2023-04-04 03:11:04';101160;;;2;36
30343;BME280;17145;49.902;8.680;'2023-04-04 03:13:31';101160;;;2;36
30343;BME280;17145;49.902;8.680;'2023-04-04 03:15:59';101160;;;2;36
30343;BME280;17145;49.902;8.680;'2023-04-04 03:18:27';101160;;;2;35
30343;BME280;17145;49.902;8.680;'2023-04-04 03:21:00';101160;;;2;36
30343;BME280;17145;49.902;8.680;'2023-04-04 03:23:39';101160;;;2;35
30343;BME280;17145;49.902;8.680;'2023-04-04 03:26:06';101160;;;2;35
30343;BME280;17145;49.902;8.680;'2023-04-04 03:28:34';101160;;;2;35
30343;BME280;17145;49.902;8.680;'2023-04-04 03:31:06';101160;;;2;36
30343;BME280;17145;49.902;8.680;'2023-04-04 03:33:37';101150;;;2;35
30343;BME280;17145;49.902;8.680;'2023-04-04 03:36:12';101160;;;2;36
30343;BME280;17145;49.902;8.680;'2023-04-04 03:38:49';101150;;;2;36
30343;BME280;17145;49.902;8.680;'2023-04-04 03:41:19';101150;;;2;36
30343;BME280;17145;49.902;8.680;'2023-04-04 03:43:47';101150;;;2;36
30343;BME280;17145;49.902;8.680;'2023-04-04 03:46:15';101150;;;2;36
30343;BME280;17145;49.902;8.680;'2023-04-04 03:48:44';101150;;;2;36
30343;BME280;17145;49.902;8.680;'2023-04-04 03:51:12';101150;;;2;36
30343;BME280;17145;49.902;8.680;'2023-04-04 03:53:40';101150;;;2;36
30343;BME280;17145;49.902;8.680;'2023-04-04 03:56:07';101150;;;2;36
30343;BME280;17145;49.902;8.680;'2023-04-04 03:58:34';101150;;;2;36
30343;BME280;17145;49.902;8.680;'2023-04-04 04:01:02';101150;;;2;36
30343;BME280;17145;49.902;8.680;'2023-04-04 04:03:29';101150;;;2;36
30343;BME280;17145;49.902;8.680;'2023-04-04 04:05:57';101150;;;2;36
30343;BME280;17145;49.902;8.680;'2023-04-04 04:08:24';101150;;;2;36
30343;BME280;17145;49.902;8.680;'2023-04-04 04:10:52';101150;;;2;36
30343;BME280;17145;49.902;8.680;'2023-04-04 04:13:19';101150;;;2;36
30343;BME280;17145;49.902;8.680;'2023-04-04 04:15:46';101160;;;2;36
30343;BME280;17145;49.902;8.680;'2023-04-04 04:18:14';101160;;;2;36
30343;BME280;17145;49.902;8.680;'2023-04-04 04:20:41';101160;;;2;36
30343;BME280;17145;49.902;8.680;'2023-04-04 04:23:10';101160;;;2;36
30343;BME280;17145;49.902;8.680;'2023-04-04 04:25:37';101160;;;2;36
30343;BME280;17145;49.902;8.680;'2023-04-04 04:28:05';101160;;;2;36
30343;BME280;17145;49.902;8.680;'2023-04-04 04:30:32';101160;;;2;36
30343;BME280;17145;49.902;8.680;'2023-04-04 04:33:00';101160;;;1;36
30343;BME280;17145;49.902;8.680;'2023-04-04 04:35:27';101160;;;2;36
30343;BME280;17145;49.902;8.680;'2023-04-04 04:37:55';101160;;;1;36
30343;BME280;17145;49.902;8.680;'2023-04-04 04:40:22';101160;;;1;36
30343;BME280;17145;49.902;8.680;'2023-04-04 04:42:50';101150;;;1;36
30343;BME280;17145;49.902;8.680;'2023-04-04 04:45:18';101150;;;1;36
30343;BME280;17145;49.902;8.680;'2023-04-04 04:47:49';101150;;;1;36
30343;BME280;17145;49.902;8.680;'2023-04-04 04:50:17';101150;;;1;36
30343;BME280;17145;49.902;8.680;'2023-04-04 04:52:45';101150;;;1;36
30343;BME280;17145;49.902;8.680;'2023-04-04 04:55:12';101140;;;1;36
30343;BME280;17145;49.902;8.680;'2023-04-04 04:57:40';101140;;;2;36
30343;BME280;17145;49.902;8.680;'2023-04-04 05:00:08';101140;;;2;36
30343;BME280;17145;49.902;8.680;'2023-04-04 05:02:36';101130;;;1;36
30343;BME280;17145;49.902;8.680;'2023-04-04 05:05:04';101140;;;2;36
30343;BME280;17145;49.902;8.680;'2023-04-04 05:07:32';101140;;;2;36
30343;BME280;17145;49.902;8.680;'2023-04-04 05:09:59';101140;;;2;36
30343;BME280;17145;49.902;8.680;'2023-04-04 05:12:27';101130;;;2;36
30343;BME280;17145;49.902;8.680;'2023-04-04 05:14:56';101130;;;1;36
30343;BME280;17145;49.902;8.680;'2023-04-04 05:17:24';101130;;;2;36
30343;BME280;17145;49.902;8.680;'2023-04-04 05:19:52';101130;;;2;36
30343;BME280;17145;49.902;8.680;'2023-04-04 05:22:20';101130;;;2;36
30343;BME280;17145;49.902;8.680;'2023-04-04 05:24:47';101120;;;2;36
30343;BME280;17145;49.902;8.680;'2023-04-04 05:27:15';101120;;;2;37
30343;BME280;17145;49.902;8.680;'2023-04-04 05:29:42';101120;;;1;36
30343;BME280;17145;49.902;8.680;'2023-04-04 05:32:10';101120;;;2;36
30343;BME280;17145;49.902;8.680;'2023-04-04 05:34:37';101120;;;2;36
30343;BME280;17145;49.902;8.680;'2023-04-04 05:37:04';101120;;;2;36
30343;BME280;17145;49.902;8.680;'2023-04-04 05:39:32';101120;;;2;36
30343;BME280;17145;49.902;8.680;'2023-04-04 05:41:59';101110;;;2;36
30343;BME280;17145;49.902;8.680;'2023-04-04 05:44:27';101110;;;1;36
30343;BME280;17145;49.902;8.680;'2023-04-04 05:46:54';101110;;;2;36
30343;BME280;17145;49.902;8.680;'2023-04-04 05:49:22';101110;;;2;36
30343;BME280;17145;49.902;8.680;'2023-04-04 05:51:49';101120;;;2;36
30343;BME280;17145;49.902;8.680;'2023-04-04 05:54:17';101120;;;1;36
30343;BME280;17145;49.902;8.680;'2023-04-04 05:56:44';101120;;;1;36
30343;BME280;17145;49.902;8.680;'2023-04-04 05:59:11';101120;;;1;36
30343;BME280;17145;49.902;8.680;'2023-04-04 06:01:39';101120;;;1;36
30343;BME280;17145;49.902;8.680;'2023-04-04 06:04:06';101120;;;1;36
30343;BME280;17145;49.902;8.680;'2023-04-04 06:06:34';101120;;;1;37
30343;BME280;17145;49.902;8.680;'2023-04-04 06:09:01';101120;;;1;37
30343;BME280;17145;49.902;8.680;'2023-04-04 06:11:30';101120;;;1;37
30343;BME280;17145;49.902;8.680;'2023-04-04 06:13:57';101120;;;1;37
30343;BME280;17145;49.902;8.680;'2023-04-04 06:16:25';101120;;;1;37
30343;BME280;17145;49.902;8.680;'2023-04-04 06:18:53';101110;;;1;37
30343;BME280;17145;49.902;8.680;'2023-04-04 06:21:25';101110;;;1;36
30343;BME280;17145;49.902;8.680;'2023-04-04 06:24:09';101120;;;1;36
30343;BME280;17145;49.902;8.680;'2023-04-04 06:26:36';101110;;;1;36
30343;BME280;17145;49.902;8.680;'2023-04-04 06:29:17';101110;;;1;37
30343;BME280;17145;49.902;8.680;'2023-04-04 06:31:45';101110;;;1;36
30343;BME280;17145;49.902;8.680;'2023-04-04 06:34:12';101110;;;1;37
30343;BME280;17145;49.902;8.680;'2023-04-04 06:36:40';101110;;;1;37
30343;BME280;17145;49.902;8.680;'2023-04-04 06:39:08';101120;;;1;37
30343;BME280;17145;49.902;8.680;'2023-04-04 06:41:36';101110;;;1;37
30343;BME280;17145;49.902;8.680;'2023-04-04 06:44:03';101110;;;1;36
30343;BME280;17145;49.902;8.680;'2023-04-04 06:46:31';101120;;;1;36
30343;BME280;17145;49.902;8.680;'2023-04-04 06:48:59';101120;;;1;36
30343;BME280;17145;49.902;8.680;'2023-04-04 06:51:26';101120;;;1;37
30343;BME280;17145;49.902;8.680;'2023-04-04 06:53:54';101120;;;1;37
30343;BME280;17145;49.902;8.680;'2023-04-04 06:56:39';101110;;;1;37
30343;BME280;17145;49.902;8.680;'2023-04-04 06:59:13';101120;;;1;37
30343;BME280;17145;49.902;8.680;'2023-04-04 07:04:28';101130;;;1;37
30343;BME280;17145;49.902;8.680;'2023-04-04 07:06:56';101130;;;1;37
30343;BME280;17145;49.902;8.680;'2023-04-04 07:09:23';101130;;;1;37
30343;BME280;17145;49.902;8.680;'2023-04-04 07:11:51';101130;;;1;37
30343;BME280;17145;49.902;8.680;'2023-04-04 07:14:18';101130;;;1;37
30343;BME280;17145;49.902;8.680;'2023-04-04 07:16:46';101130;;;1;37
30343;BME280;17145;49.902;8.680;'2023-04-04 07:19:13';101130;;;1;37
30343;BME280;17145;49.902;8.680;'2023-04-04 07:21:41';101130;;;1;37
30343;BME280;17145;49.902;8.680;'2023-04-04 07:24:08';101130;;;1;37
30343;BME280;17145;49.902;8.680;'2023-04-04 07:26:36';101130;;;1;37
30343;BME280;17145;49.902;8.680;'2023-04-04 07:29:03';101130;;;1;37
30343;BME280;17145;49.902;8.680;'2023-04-04 07:31:31';101130;;;1;37
30343;BME280;17145;49.902;8.680;'2023-04-04 07:33:59';101130;;;1;37
30343;BME280;17145;49.902;8.680;'2023-04-04 07:36:26';101140;;;1;37
30343;BME280;17145;49.902;8.680;'2023-04-04 07:38:54';101140;;;1;37
30343;BME280;17145;49.902;8.680;'2023-04-04 07:41:21';101130;;;1;37
30343;BME280;17145;49.902;8.680;'2023-04-04 07:43:49';101130;;;1;37
30343;BME280;17145;49.902;8.680;'2023-04-04 07:46:16';101130;;;1;37
30343;BME280;17145;49.902;8.680;'2023-04-04 07:48:43';101130;;;1;37
30343;BME280;17145;49.902;8.680;'2023-04-04 07:51:11';101130;;;1;37
30343;BME280;17145;49.902;8.680;'2023-04-04 07:53:38';101130;;;2;37
30343;BME280;17145;49.902;8.680;'2023-04-04 07:56:06';101130;;;1;37
30343;BME280;17145;49.902;8.680;'2023-04-04 07:58:33';101130;;;1;37
30343;BME280;17145;49.902;8.680;'2023-04-04 08:01:04';101130;;;2;37
30343;BME280;17145;49.902;8.680;'2023-04-04 08:03:32';101130;;;1;37
30343;BME280;17145;49.902;8.680;'2023-04-04 08:06:01';101130;;;2;36
30343;BME280;17145;49.902;8.680;'2023-04-04 08:08:28';101140;;;2;37
30343;BME280;17145;49.902;8.680;'2023-04-04 08:10:57';101140;;;2;37
30343;BME280;17145;49.902;8.680;'2023-04-04 08:13:24';101140;;;2;37
30343;BME280;17145;49.902;8.680;'2023-04-04 08:15:52';101140;;;2;37
30343;BME280;17145;49.902;8.680;'2023-04-04 08:18:19';101140;;;2;36
30343;BME280;17145;49.902;8.680;'2023-04-04 08:20:47';101140;;;2;36
30343;BME280;17145;49.902;8.680;'2023-04-04 08:23:14';101140;;;2;36
30343;BME280;17145;49.902;8.680;'2023-04-04 08:25:42';101140;;;2;36
30343;BME280;17145;49.902;8.680;'2023-04-04 08:28:09';101150;;;2;36
30343;BME280;17145;49.902;8.680;'2023-04-04 08:30:37';101140;;;2;36
30343;BME280;17145;49.902;8.680;'2023-04-04 08:33:04';101150;;;2;36
30343;BME280;17145;49.902;8.680;'2023-04-04 08:35:32';101140;;;2;36
30343;BME280;17145;49.902;8.680;'2023-04-04 08:37:59';101140;;;2;36
30343;BME280;17145;49.902;8.680;'2023-04-04 08:40:27';101150;;;2;35
30343;BME280;17145;49.902;8.680;'2023-04-04 08:42:54';101150;;;2;35
30343;BME280;17145;49.902;8.680;'2023-04-04 08:45:22';101150;;;3;35
30343;BME280;17145;49.902;8.680;'2023-04-04 08:47:49';101160;;;3;35
30343;BME280;17145;49.902;8.680;'2023-04-04 08:50:17';101160;;;2;35
30343;BME280;17145;49.902;8.680;'2023-04-04 08:52:44';101160;;;2;35
30343;BME280;17145;49.902;8.680;'2023-04-04 08:55:12';101160;;;3;35
30343;BME280;17145;49.902;8.680;'2023-04-04 08:57:39';101160;;;3;34
30343;BME280;17145;49.902;8.680;'2023-04-04 09:00:08';101160;;;2;35
30343;BME280;17145;49.902;8.680;'2023-04-04 09:02:36';101160;;;3;34
30343;BME280;17145;49.902;8.680;'2023-04-04 09:05:03';101160;;;3;34
30343;BME280;17145;49.902;8.680;'2023-04-04 09:07:31';101160;;;3;34
30343;BME280;17145;49.902;8.680;'2023-04-04 09:09:58';101160;;;3;34
30343;BME280;17145;49.902;8.680;'2023-04-04 09:12:26';101150;;;3;34
30343;BME280;17145;49.902;8.680;'2023-04-04 09:14:53';101160;;;3;33
30343;BME280;17145;49.902;8.680;'2023-04-04 09:17:21';101160;;;3;33
30343;BME280;17145;49.902;8.680;'2023-04-04 09:19:49';101160;;;3;33
30343;BME280;17145;49.902;8.680;'2023-04-04 09:22:16';101160;;;3;33
30343;BME280;17145;49.902;8.680;'2023-04-04 09:24:44';101160;;;3;33
30343;BME280;17145;49.902;8.680;'2023-04-04 09:27:11';101160;;;3;33
30343;BME280;17145;49.902;8.680;'2023-04-04 09:29:39';101150;;;3;33
30343;BME280;17145;49.902;8.680;'2023-04-04 09:32:07';101150;;;4;33
30343;BME280;17145;49.902;8.680;'2023-04-04 09:34:34';101150;;;4;33
30343;BME280;17145;49.902;8.680;'2023-04-04 09:37:01';101150;;;4;33
30343;BME280;17145;49.902;8.680;'2023-04-04 09:39:29';101150;;;4;32
30343;BME280;17145;49.902;8.680;'2023-04-04 09:41:56';101150;;;4;32
30343;BME280;17145;49.902;8.680;'2023-04-04 09:44:24';101150;;;4;32
30343;BME280;17145;49.902;8.680;'2023-04-04 09:46:51';101150;;;4;32
30343;BME280;17145;49.902;8.680;'2023-04-04 09:49:19';101150;;;4;31
30343;BME280;17145;49.902;8.680;'2023-04-04 09:51:46';101150;;;4;32
30343;BME280;17145;49.902;8.680;'2023-04-04 09:54:14';101150;;;4;32
30343;BME280;17145;49.902;8.680;'2023-04-04 09:56:41';101150;;;4;32
30343;BME280;17145;49.902;8.680;'2023-04-04 09:59:09';101150;;;4;31
30343;BME280;17145;49.902;8.680;'2023-04-04 10:01:36';101150;;;4;31
30343;BME280;17145;49.902;8.680;'2023-04-04 10:04:04';101150;;;5;31
30343;BME280;17145;49.902;8.680;'2023-04-04 10:06:31';101150;;;4;31
30343;BME280;17145;49.902;8.680;'2023-04-04 10:08:59';101140;;;5;30
30343;BME280;17145;49.902;8.680;'2023-04-04 10:11:26';101140;;;5;30
30343;BME280;17145;49.902;8.680;'2023-04-04 10:13:54';101140;;;5;30
30343;BME280;17145;49.902;8.680;'2023-04-04 10:16:21';101140;;;5;30
30343;BME280;17145;49.902;8.680;'2023-04-04 10:18:49';101140;;;5;30
30343;BME280;17145;49.902;8.680;'2023-04-04 10:21:16';101140;;;5;30
30343;BME280;17145;49.902;8.680;'2023-04-04 10:23:43';101140;;;5;30
30343;BME280;17145;49.902;8.680;'2023-04-04 10:26:11';101130;;;5;30
30343;BME280;17145;49.902;8.680;'2023-04-04 10:28:38';101130;;;5;30
30343;BME280;17145;49.902;8.680;'2023-04-04 10:31:06';101130;;;5;29
30343;BME280;17145;49.902;8.680;'2023-04-04 10:33:33';101140;;;5;30
30343;BME280;17145;49.902;8.680;'2023-04-04 10:36:01';101130;;;5;29
30343;BME280;17145;49.902;8.680;'2023-04-04 10:38:28';101130;;;5;30
30343;BME280;17145;49.902;8.680;'2023-04-04 10:40:55';101130;;;5;30
30343;BME280;17145;49.902;8.680;'2023-04-04 10:43:25';101130;;;5;29
30343;BME280;17145;49.902;8.680;'2023-04-04 10:45:53';101140;;;5;29
30343;BME280;17145;49.902;8.680;'2023-04-04 10:48:21';101130;;;6;29
30343;BME280;17145;49.902;8.680;'2023-04-04 10:50:49';101140;;;6;29
30343;BME280;17145;49.902;8.680;'2023-04-04 10:53:17';101130;;;6;29
30343;BME280;17145;49.902;8.680;'2023-04-04 10:55:45';101130;;;5;28
30343;BME280;17145;49.902;8.680;'2023-04-04 10:58:12';101120;;;5;29
30343;BME280;17145;49.902;8.680;'2023-04-04 11:00:40';101120;;;5;29
30343;BME280;17145;49.902;8.680;'2023-04-04 11:03:13';101120;;;6;29
30343;BME280;17145;49.902;8.680;'2023-04-04 11:05:43';101130;;;6;29
30343;BME280;17145;49.902;8.680;'2023-04-04 11:08:11';101130;;;6;28
30343;BME280;17145;49.902;8.680;'2023-04-04 11:10:42';101120;;;6;27
30343;BME280;17145;49.902;8.680;'2023-04-04 11:13:09';101120;;;6;28
30343;BME280;17145;49.902;8.680;'2023-04-04 11:15:39';101120;;;6;28
30343;BME280;17145;49.902;8.680;'2023-04-04 11:18:06';101110;;;7;28
30343;BME280;17145;49.902;8.680;'2023-04-04 11:20:36';101120;;;7;27
30343;BME280;17145;49.902;8.680;'2023-04-04 11:23:05';101120;;;7;27
30343;BME280;17145;49.902;8.680;'2023-04-04 11:25:33';101120;;;7;27
30343;BME280;17145;49.902;8.680;'2023-04-04 11:28:01';101110;;;7;28
30343;BME280;17145;49.902;8.680;'2023-04-04 11:30:29';101110;;;7;28
30343;BME280;17145;49.902;8.680;'2023-04-04 11:33:00';101110;;;7;27
30343;BME280;17145;49.902;8.680;'2023-04-04 11:35:27';101110;;;7;27
30343;BME280;17145;49.902;8.680;'2023-04-04 11:37:55';101100;;;7;27
30343;BME280;17145;49.902;8.680;'2023-04-04 11:40:23';101100;;;7;26
30343;BME280;17145;49.902;8.680;'2023-04-04 11:42:53';101100;;;7;27
30343;BME280;17145;49.902;8.680;'2023-04-04 11:45:23';101100;;;7;26
30343;BME280;17145;49.902;8.680;'2023-04-04 11:47:51';101100;;;8;26
30343;BME280;17145;49.902;8.680;'2023-04-04 11:50:22';101100;;;7;26
30343;BME280;17145;49.902;8.680;'2023-04-04 11:52:50';101100;;;8;26
30343;BME280;17145;49.902;8.680;'2023-04-04 11:55:18';101100;;;8;27
30343;BME280;17145;49.902;8.680;'2023-04-04 11:57:46';101100;;;6;25
30343;BME280;17145;49.902;8.680;'2023-04-04 12:00:19';101100;;;7;26
30343;BME280;17145;49.902;8.680;'2023-04-04 12:02:48';101100;;;7;27
30343;BME280;17145;49.902;8.680;'2023-04-04 12:05:16';101100;;;7;26
30343;BME280;17145;49.902;8.680;'2023-04-04 12:07:44';101100;;;7;27
30343;BME280;17145;49.902;8.680;'2023-04-04 12:10:13';101100;;;7;26
30343;BME280;17145;49.902;8.680;'2023-04-04 12:12:44';101090;;;8;26
30343;BME280;17145;49.902;8.680;'2023-04-04 12:15:14';101090;;;8;26
30343;BME280;17145;49.902;8.680;'2023-04-04 12:17:42';101090;;;8;25
30343;BME280;17145;49.902;8.680;'2023-04-04 12:20:10';101090;;;8;25
30343;BME280;17145;49.902;8.680;'2023-04-04 12:22:38';101090;;;8;24
30343;BME280;17145;49.902;8.680;'2023-04-04 12:25:06';101090;;;8;24
30343;BME280;17145;49.902;8.680;'2023-04-04 12:27:34';101090;;;9;24
30343;BME280;17145;49.902;8.680;'2023-04-04 12:30:03';101080;;;9;23
30343;BME280;17145;49.902;8.680;'2023-04-04 12:32:40';101080;;;9;23
30343;BME280;17145;49.902;8.680;'2023-04-04 12:35:09';101080;;;9;24
30343;BME280;17145;49.902;8.680;'2023-04-04 12:37:42';101080;;;9;25
30343;BME280;17145;49.902;8.680;'2023-04-04 12:40:14';101080;;;9;24
30343;BME280;17145;49.902;8.680;'2023-04-04 12:42:44';101080;;;9;24
30343;BME280;17145;49.902;8.680;'2023-04-04 12:45:15';101080;;;9;23
30343;BME280;17145;49.902;8.680;'2023-04-04 12:47:44';101080;;;9;23
30343;BME280;17145;49.902;8.680;'2023-04-04 12:50:11';101070;;;9;24
30343;BME280;17145;49.902;8.680;'2023-04-04 12:52:42';101080;;;10;23
30343;BME280;17145;49.902;8.680;'2023-04-04 12:55:12';101070;;;9;24
30343;BME280;17145;49.902;8.680;'2023-04-04 12:57:41';101070;;;10;23
30343;BME280;17145;49.902;8.680;'2023-04-04 13:00:11';101060;;;10;23
30343;BME280;17145;49.902;8.680;'2023-04-04 13:02:45';101060;;;10;22
30343;BME280;17145;49.902;8.680;'2023-04-04 13:05:18';101070;;;10;23
30343;BME280;17145;49.902;8.680;'2023-04-04 13:07:47';101050;;;10;22
30343;BME280;17145;49.902;8.680;'2023-04-04 13:10:20';101050;;;10;22
30343;BME280;17145;49.902;8.680;'2023-04-04 13:12:52';101040;;;10;23
30343;BME280;17145;49.902;8.680;'2023-04-04 13:15:21';101040;;;11;22
30343;BME280;17145;49.902;8.680;'2023-04-04 13:17:54';101030;;;10;23
30343;BME280;17145;49.902;8.680;'2023-04-04 13:20:24';101030;;;11;23
30343;BME280;17145;49.902;8.680;'2023-04-04 13:23:02';101020;;;11;22
30343;BME280;17145;49.902;8.680;'2023-04-04 13:25:33';101020;;;11;22
30343;BME280;17145;49.902;8.680;'2023-04-04 13:28:05';101020;;;11;21
30343;BME280;17145;49.902;8.680;'2023-04-04 13:30:40';101020;;;11;21
30343;BME280;17145;49.902;8.680;'2023-04-04 13:33:08';101010;;;11;22
30343;BME280;17145;49.902;8.680;'2023-04-04 13:35:37';101010;;;12;21
30343;BME280;17145;49.902;8.680;'2023-04-04 13:38:12';101010;;;11;21
30343;BME280;17145;49.902;8.680;'2023-04-04 13:40:41';101010;;;12;22
30343;BME280;17145;49.902;8.680;'2023-04-04 13:43:10';101010;;;12;21
30343;BME280;17145;49.902;8.680;'2023-04-04 13:45:43';101010;;;12;20
30343;BME280;17145;49.902;8.680;'2023-04-04 13:48:13';101000;;;12;20
30343;BME280;17145;49.902;8.680;'2023-04-04 13:50:41';101000;;;12;21
30343;BME280;17145;49.902;8.680;'2023-04-04 13:53:10';100990;;;11;21
30343;BME280;17145;49.902;8.680;'2023-04-04 13:55:40';100990;;;12;21
30343;BME280;17145;49.902;8.680;'2023-04-04 13:58:09';100980;;;12;21
30343;BME280;17145;49.902;8.680;'2023-04-04 14:00:37';100980;;;12;20
30343;BME280;17145;49.902;8.680;'2023-04-04 14:03:10';100980;;;12;21
30343;BME280;17145;49.902;8.680;'2023-04-04 14:05:38';100980;;;12;20
30343;BME280;17145;49.902;8.680;'2023-04-04 14:08:07';100970;;;12;20
30343;BME280;17145;49.902;8.680;'2023-04-04 14:10:36';100970;;;12;21
30343;BME280;17145;49.902;8.680;'2023-04-04 14:13:07';100970;;;13;21
30343;BME280;17145;49.902;8.680;'2023-04-04 14:15:36';100970;;;12;21
30343;BME280;17145;49.902;8.680;'2023-04-04 14:18:07';100960;;;13;21
30343;BME280;17145;49.902;8.680;'2023-04-04 14:20:37';100960;;;13;21
30343;BME280;17145;49.902;8.680;'2023-04-04 14:23:04';100960;;;13;21
30343;BME280;17145;49.902;8.680;'2023-04-04 14:25:32';100960;;;13;20
30343;BME280;17145;49.902;8.680;'2023-04-04 14:28:03';100960;;;14;20
30343;BME280;17145;49.902;8.680;'2023-04-04 14:30:31';100950;;;13;19
30343;BME280;17145;49.902;8.680;'2023-04-04 14:32:58';100950;;;13;19
30343;BME280;17145;49.902;8.680;'2023-04-04 14:35:26';100950;;;13;19
30343;BME280;17145;49.902;8.680;'2023-04-04 14:37:57';100950;;;13;19
30343;BME280;17145;49.902;8.680;'2023-04-04 14:40:30';100950;;;12;19
30343;BME280;17145;49.902;8.680;'2023-04-04 14:42:59';100950;;;12;19
30343;BME280;17145;49.902;8.680;'2023-04-04 14:45:27';100950;;;12;19
30343;BME280;17145;49.902;8.680;'2023-04-04 14:47:55';100940;;;12;19
30343;BME280;17145;49.902;8.680;'2023-04-04 14:50:26';100940;;;12;20
30343;BME280;17145;49.902;8.680;'2023-04-04 14:52:54';100940;;;12;20
30343;BME280;17145;49.902;8.680;'2023-04-04 14:55:22';100940;;;12;20
30343;BME280;17145;49.902;8.680;'2023-04-04 14:57:50';100930;;;12;20
30343;BME280;17145;49.902;8.680;'2023-04-04 15:00:20';100930;;;13;20
30343;BME280;17145;49.902;8.680;'2023-04-04 15:02:49';100920;;;13;21
30343;BME280;17145;49.902;8.680;'2023-04-04 15:05:18';100920;;;13;20
30343;BME280;17145;49.902;8.680;'2023-04-04 15:07:46';100920;;;13;19
30343;BME280;17145;49.902;8.680;'2023-04-04 15:10:15';100920;;;14;20
30343;BME280;17145;49.902;8.680;'2023-04-04 15:12:56';100910;;;13;19
30343;BME280;17145;49.902;8.680;'2023-04-04 15:15:28';100910;;;14;19
30343;BME280;17145;49.902;8.680;'2023-04-04 15:17:56';100900;;;14;18
30343;BME280;17145;49.902;8.680;'2023-04-04 15:20:23';100900;;;14;18
30343;BME280;17145;49.902;8.680;'2023-04-04 15:22:55';100900;;;14;18
30343;BME280;17145;49.902;8.680;'2023-04-04 15:25:23';100900;;;14;18
30343;BME280;17145;49.902;8.680;'2023-04-04 15:27:51';100900;;;14;17
30343;BME280;17145;49.902;8.680;'2023-04-04 15:30:18';100890;;;14;18
30343;BME280;17145;49.902;8.680;'2023-04-04 15:32:46';100880;;;14;17
30343;BME280;17145;49.902;8.680;'2023-04-04 15:35:14';100890;;;14;17
30343;BME280;17145;49.902;8.680;'2023-04-04 15:37:41';100890;;;15;17
30343;BME280;17145;49.902;8.680;'2023-04-04 15:40:09';100880;;;16;17
30343;BME280;17145;49.902;8.680;'2023-04-04 15:42:37';100880;;;16;16
30343;BME280;17145;49.902;8.680;'2023-04-04 15:45:06';100880;;;16;15
30343;BME280;17145;49.902;8.680;'2023-04-04 15:47:33';100870;;;16;16
30343;BME280;17145;49.902;8.680;'2023-04-04 15:50:01';100870;;;17;16
30343;BME280;17145;49.902;8.680;'2023-04-04 15:52:28';100870;;;18;16
30343;BME280;17145;49.902;8.680;'2023-04-04 15:54:55';100870;;;17;14
30343;BME280;17145;49.902;8.680;'2023-04-04 15:57:23';100860;;;18;15
30343;BME280;17145;49.902;8.680;'2023-04-04 15:59:50';100860;;;17;15
30343;BME280;17145;49.902;8.680;'2023-04-04 16:02:18';100850;;;18;15
30343;BME280;17145;49.902;8.680;'2023-04-04 16:04:45';100850;;;18;14
30343;BME280;17145;49.902;8.680;'2023-04-04 16:07:13';100840;;;18;15
30343;BME280;17145;49.902;8.680;'2023-04-04 16:09:40';100840;;;17;14
30343;BME280;17145;49.902;8.680;'2023-04-04 16:12:08';100840;;;17;15
30343;BME280;17145;49.902;8.680;'2023-04-04 16:14:35';100830;;;17;15
30343;BME280;17145;49.902;8.680;'2023-04-04 16:17:02';100830;;;17;15
30343;BME280;17145;49.902;8.680;'2023-04-04 16:19:30';100830;;;18;15
30343;BME280;17145;49.902;8.680;'2023-04-04 16:21:57';100820;;;18;15
30343;BME280;17145;49.902;8.680;'2023-04-04 16:24:25';100820;;;18;14
30343;BME280;17145;49.902;8.680;'2023-04-04 16:26:52';100810;;;19;14